Antioch, SC

8:10 PM EDT on August 29, 2014 (GMT -0400)
Woodward | Change Station
CLOSE
Current Station
Airport
Location: Camden,
Elevation: 302 ft
Nearby Weather Stations

Elev 302 ft 34.28 °N, 80.56 °W | Updated 35 minutes ago

Clear
Clear
86 °F
Feels Like 87 °F
N
0
Wind Variable Wind from North

Today
High -- | Low -- °F
--% Chance of Precip.
Yesterday
High -- | Low -- °F
Precip. -- in
6:53 AM 7:52 PM
Waxing Crescent, 17% visible
Pressure 30.07 in
Visibility 10.0 miles
Clouds Clear
Heat Index 87 °F
Dew Point 64 °F
Humidity 48%
Rainfall 0.00 in
Snow Depth Not available.
UV 0 out of 12
Pollen 8.90 out of 12
Air Quality Not available.
Flu Activity Not available.
METAR KCDN 292335Z AUTO 00000KT 10SM CLR 30/18 A3007 RMK AO2 TSNO

More Conditions Fewer Conditions

Pressure 30.07 in
Visibility 10.0 miles
Clouds Clear
Heat Index 87 °F
Dew Point 64 °F
Humidity 48%
Rainfall 0.00 in
Snow Depth Not available.
UV 0 out of 12
Pollen 8.90 out of 12
Air Quality Not available.
Flu Activity Not available.
METAR KCDN 292335Z AUTO 00000KT 10SM CLR 30/18 A3007 RMK AO2 TSNO

More Conditions Fewer Conditions

10-Day Weather Forecast

Almanac

Astronomy

Aug. 29, 2014 Rise Set
Actual Time 6:53 AM EDT 7:52 PM EDT
Civil Twilight 6:27 AM EDT 8:18 PM EDT
Nautical Twilight 5:57 AM EDT 8:48 PM EDT
Astronomical Twilight 5:25 AM EDT 9:20 PM EDT
Moon 10:30 AM EDT (8/29) 10:01 PM EDT (8/29)
Length of Visible Light 13h 50m
Length of Day
12h 58m
Tomorrow will be 2m 1s shorter.
Waxing Crescent, 17% of the Moon is Illuminated
Today
Waxing Crescent
Sep 2
First Quarter
Sep 8
Full
Sep 15
Last Quarter
Sep 24
New

Today's Extremes

State Highs State Lows

Community

WunderPhotos

Upload Photos

1,748,382 photos uploaded!

Nearby

Air Quality

  Air Quality AQ Index Pollutant
Yesterday Moderate
OZONE
Friday Moderate
OZONE
Saturday Good
OZONE

Snow Depth

Station Depth Elevation
No new snow has been reported.

Earthquake Activity

City Distance Mag. Time & Date
No recent earthquake activity has been reported nearby.
Minimum magnitude displayed is 2.5.

Coastal Water Temperatures

Place Temperature
No Stations Reporting

Nearby Weather Stations